This is the latest recevied weather packets stored in our database for station/object AE5TC. If no packets are shown the sender has not sent any weather packets the latest 10 day(s).
| Time | Temp. | Humidity | Pressure | Rain* | Wind** | Luminosity | Snow |
|---|---|---|---|---|---|---|---|
| 1777502608 | 25° C | 88% | 1011.5 hPa | 0 mm | - | 124 W/m² | - |
| 1777502304 | 25° C | 87% | 1011.2 hPa | 0 mm | - | 134 W/m² | - |
| 1777502001 | 25° C | 88% | 1011.3 hPa | 0 mm | - | 142 W/m² | - |
| 1777501697 | 25° C | 87% | 1011.2 hPa | 0 mm | - | 114 W/m² | - |
| 1777500785 | 25.56° C | 86% | 1011.5 hPa | 0 mm | - | 198 W/m² | - |
| 1777500482 | 25.56° C | 87% | 1011.6 hPa | 0 mm | - | 193 W/m² | - |
| 1777499875 | 25.56° C | 88% | 1011.7 hPa | 0 mm | - | 249 W/m² | - |
| 1777499269 | 26.11° C | 86% | 1011.7 hPa | 0 mm | - | 234 W/m² | - |
| 1777498662 | 26.67° C | 83% | 1011.5 hPa | 0 mm | - | 352 W/m² | - |
| 1777498358 | 26.67° C | 82% | 1011.6 hPa | 0 mm | - | 312 W/m² | - |
| 1777497753 | 26.67° C | 83% | 1011.8 hPa | 0 mm | - | 389 W/m² | - |
| 1777497450 | 26.67° C | 82% | 1011.8 hPa | 0 mm | - | 399 W/m² | - |
| 1777497145 | 26.67° C | 82% | 1011.9 hPa | 0 mm | - | 410 W/m² | - |
| 1777496842 | 27.22° C | 82% | 1012 hPa | 0 mm | - | 432 W/m² | - |
| 1777451594 | 17.22° C | 99% | 1014.3 hPa | 0 mm | - | 0 W/m² | - |
| 1777451289 | 17.22° C | 99% | 1014.6 hPa | 0 mm | - | 0 W/m² | - |
| 1777450985 | 17.22° C | 99% | 1014.7 hPa | 0 mm | - | 0 W/m² | - |
| 1777450681 | 17.22° C | 99% | 1014.8 hPa | 0 mm | - | 0 W/m² | - |
| 1777450376 | 17.22° C | 99% | 1014.6 hPa | 0 mm | - | 0 W/m² | - |
| 1777450074 | 17.22° C | 99% | 1014.3 hPa | 0 mm | - | 0 W/m² | - |
| 1777449769 | 17.22° C | 99% | 1014.2 hPa | 0 mm | - | 0 W/m² | - |
| 1777449466 | 16.67° C | 99% | 1014.5 hPa | 0 mm | - | 0 W/m² | - |
| 1777449162 | 17.22° C | 99% | 1014.7 hPa | 0 mm | - | 0 W/m² | - |
| 1777448858 | 17.22° C | 99% | 1014.4 hPa | 0 mm | - | 0 W/m² | - |
| 1777448251 | 17.22° C | 99% | 1014.3 hPa | 0 mm | - | 0 W/m² | - |
* Rain latest hour (hover to see other rain measurements)
** Current wind speed in m/s (hover to see current wind gust speed)